sensor_id;sensor_type;location;lat;lon;timestamp;temperature;humidity
9107;DHT22;4589;48.690;8.952;2023-12-29T00:02:23;7.40;99.90
9107;DHT22;4589;48.690;8.952;2023-12-29T00:07:15;7.50;99.90
9107;DHT22;4589;48.690;8.952;2023-12-29T00:09:41;7.40;99.90
9107;DHT22;4589;48.690;8.952;2023-12-29T00:12:07;7.40;99.90
9107;DHT22;4589;48.690;8.952;2023-12-29T00:14:35;7.40;99.90
9107;DHT22;4589;48.690;8.952;2023-12-29T00:17:03;7.30;99.90
9107;DHT22;4589;48.690;8.952;2023-12-29T00:19:28;7.20;99.90
9107;DHT22;4589;48.690;8.952;2023-12-29T00:21:54;7.20;99.90
9107;DHT22;4589;48.690;8.952;2023-12-29T00:26:46;7.10;99.90
9107;DHT22;4589;48.690;8.952;2023-12-29T00:29:13;7.10;99.90
9107;DHT22;4589;48.690;8.952;2023-12-29T00:31:40;7.00;99.90
9107;DHT22;4589;48.690;8.952;2023-12-29T00:34:06;7.00;99.90
9107;DHT22;4589;48.690;8.952;2023-12-29T00:38:57;7.10;99.90
9107;DHT22;4589;48.690;8.952;2023-12-29T00:41:23;7.10;99.90
9107;DHT22;4589;48.690;8.952;2023-12-29T00:43:50;7.10;99.90
9107;DHT22;4589;48.690;8.952;2023-12-29T00:46:15;7.10;99.90
9107;DHT22;4589;48.690;8.952;2023-12-29T00:48:41;7.10;99.90
9107;DHT22;4589;48.690;8.952;2023-12-29T00:53:34;7.00;99.90
9107;DHT22;4589;48.690;8.952;2023-12-29T00:56:00;7.00;99.90
9107;DHT22;4589;48.690;8.952;2023-12-29T00:58:26;7.10;99.90
9107;DHT22;4589;48.690;8.952;2023-12-29T01:00:52;7.10;99.90
9107;DHT22;4589;48.690;8.952;2023-12-29T01:03:17;7.20;99.90
9107;DHT22;4589;48.690;8.952;2023-12-29T01:05:43;7.20;99.90
9107;DHT22;4589;48.690;8.952;2023-12-29T01:10:34;7.30;99.90
9107;DHT22;4589;48.690;8.952;2023-12-29T01:13:00;7.40;99.90
9107;DHT22;4589;48.690;8.952;2023-12-29T01:15:25;7.40;99.90
9107;DHT22;4589;48.690;8.952;2023-12-29T01:17:51;7.40;99.90
9107;DHT22;4589;48.690;8.952;2023-12-29T01:20:17;7.40;99.90
9107;DHT22;4589;48.690;8.952;2023-12-29T01:22:42;7.40;99.90
9107;DHT22;4589;48.690;8.952;2023-12-29T01:25:08;7.40;99.90
9107;DHT22;4589;48.690;8.952;2023-12-29T01:27:34;7.40;99.90
9107;DHT22;4589;48.690;8.952;2023-12-29T01:29:59;7.50;99.90
9107;DHT22;4589;48.690;8.952;2023-12-29T01:32:25;7.50;99.90
9107;DHT22;4589;48.690;8.952;2023-12-29T01:34:52;7.50;99.90
9107;DHT22;4589;48.690;8.952;2023-12-29T01:37:18;7.50;99.90
9107;DHT22;4589;48.690;8.952;2023-12-29T01:39:43;7.50;99.90
9107;DHT22;4589;48.690;8.952;2023-12-29T01:42:09;7.50;99.90
9107;DHT22;4589;48.690;8.952;2023-12-29T01:47:05;7.50;99.90
9107;DHT22;4589;48.690;8.952;2023-12-29T01:49:35;7.50;99.90
9107;DHT22;4589;48.690;8.952;2023-12-29T01:52:02;7.60;99.90
9107;DHT22;4589;48.690;8.952;2023-12-29T01:54:34;7.50;99.90
9107;DHT22;4589;48.690;8.952;2023-12-29T01:57:02;7.60;99.90
9107;DHT22;4589;48.690;8.952;2023-12-29T01:59:28;7.60;99.90
9107;DHT22;4589;48.690;8.952;2023-12-29T02:01:57;7.60;99.90
9107;DHT22;4589;48.690;8.952;2023-12-29T02:04:24;7.70;99.90
9107;DHT22;4589;48.690;8.952;2023-12-29T02:06:51;7.70;99.90
9107;DHT22;4589;48.690;8.952;2023-12-29T02:09:17;7.60;99.90
9107;DHT22;4589;48.690;8.952;2023-12-29T02:11:42;7.70;99.90
9107;DHT22;4589;48.690;8.952;2023-12-29T02:14:08;7.80;99.90
9107;DHT22;4589;48.690;8.952;2023-12-29T02:19:41;7.80;99.90
9107;DHT22;4589;48.690;8.952;2023-12-29T02:22:10;7.80;99.90
9107;DHT22;4589;48.690;8.952;2023-12-29T02:24:36;7.80;99.90
9107;DHT22;4589;48.690;8.952;2023-12-29T02:27:38;7.70;99.90
9107;DHT22;4589;48.690;8.952;2023-12-29T02:33:10;7.60;99.90
9107;DHT22;4589;48.690;8.952;2023-12-29T02:35:41;7.70;99.90
9107;DHT22;4589;48.690;8.952;2023-12-29T02:38:07;7.60;99.90
9107;DHT22;4589;48.690;8.952;2023-12-29T02:40:33;7.50;99.90
9107;DHT22;4589;48.690;8.952;2023-12-29T02:42:59;7.50;99.90
9107;DHT22;4589;48.690;8.952;2023-12-29T02:45:25;7.50;99.90
9107;DHT22;4589;48.690;8.952;2023-12-29T02:47:51;7.40;99.90
9107;DHT22;4589;48.690;8.952;2023-12-29T02:52:43;7.40;99.90
9107;DHT22;4589;48.690;8.952;2023-12-29T03:00:01;7.30;99.90
9107;DHT22;4589;48.690;8.952;2023-12-29T03:02:27;7.40;99.90
9107;DHT22;4589;48.690;8.952;2023-12-29T03:07:19;7.30;99.90
9107;DHT22;4589;48.690;8.952;2023-12-29T03:09:44;7.40;99.90
9107;DHT22;4589;48.690;8.952;2023-12-29T03:12:10;7.40;99.90
9107;DHT22;4589;48.690;8.952;2023-12-29T03:14:35;7.40;99.90
9107;DHT22;4589;48.690;8.952;2023-12-29T03:17:01;7.50;99.90
9107;DHT22;4589;48.690;8.952;2023-12-29T03:19:27;7.50;99.90
9107;DHT22;4589;48.690;8.952;2023-12-29T03:21:52;7.50;99.90
9107;DHT22;4589;48.690;8.952;2023-12-29T03:24:19;7.50;99.90
9107;DHT22;4589;48.690;8.952;2023-12-29T03:26:45;7.40;99.90
9107;DHT22;4589;48.690;8.952;2023-12-29T03:29:11;7.50;99.90
9107;DHT22;4589;48.690;8.952;2023-12-29T03:31:36;7.50;99.90
9107;DHT22;4589;48.690;8.952;2023-12-29T03:41:20;7.30;99.90
9107;DHT22;4589;48.690;8.952;2023-12-29T03:43:45;7.20;99.90
9107;DHT22;4589;48.690;8.952;2023-12-29T03:46:18;7.10;99.90
9107;DHT22;4589;48.690;8.952;2023-12-29T03:51:11;7.00;99.90
9107;DHT22;4589;48.690;8.952;2023-12-29T03:53:36;6.90;99.90
9107;DHT22;4589;48.690;8.952;2023-12-29T03:56:09;6.90;99.90
9107;DHT22;4589;48.690;8.952;2023-12-29T03:58:35;6.80;99.90
9107;DHT22;4589;48.690;8.952;2023-12-29T04:01:01;6.90;99.90
9107;DHT22;4589;48.690;8.952;2023-12-29T04:03:27;6.90;99.90
9107;DHT22;4589;48.690;8.952;2023-12-29T04:05:52;6.90;99.90
9107;DHT22;4589;48.690;8.952;2023-12-29T04:08:18;6.90;99.90
9107;DHT22;4589;48.690;8.952;2023-12-29T04:15:35;7.00;99.90
9107;DHT22;4589;48.690;8.952;2023-12-29T04:18:01;7.00;99.90
9107;DHT22;4589;48.690;8.952;2023-12-29T04:20:26;7.00;99.90
9107;DHT22;4589;48.690;8.952;2023-12-29T04:22:52;7.10;99.90
9107;DHT22;4589;48.690;8.952;2023-12-29T04:37:28;6.90;99.90
9107;DHT22;4589;48.690;8.952;2023-12-29T04:39:53;6.90;99.90
9107;DHT22;4589;48.690;8.952;2023-12-29T04:42:19;6.80;99.90
9107;DHT22;4589;48.690;8.952;2023-12-29T04:44:45;6.90;99.90
9107;DHT22;4589;48.690;8.952;2023-12-29T04:47:10;6.90;99.90
9107;DHT22;4589;48.690;8.952;2023-12-29T04:49:36;6.90;99.90
9107;DHT22;4589;48.690;8.952;2023-12-29T04:52:01;6.90;99.90
9107;DHT22;4589;48.690;8.952;2023-12-29T04:54:27;6.90;99.90
9107;DHT22;4589;48.690;8.952;2023-12-29T04:59:19;6.80;99.90
9107;DHT22;4589;48.690;8.952;2023-12-29T05:01:44;6.80;99.90
9107;DHT22;4589;48.690;8.952;2023-12-29T05:04:10;6.90;99.90
9107;DHT22;4589;48.690;8.952;2023-12-29T05:06:35;7.00;99.90
9107;DHT22;4589;48.690;8.952;2023-12-29T05:09:01;7.10;99.90
9107;DHT22;4589;48.690;8.952;2023-12-29T05:11:27;7.10;99.90
9107;DHT22;4589;48.690;8.952;2023-12-29T05:13:52;7.10;99.90
9107;DHT22;4589;48.690;8.952;2023-12-29T05:16:18;7.10;99.90
9107;DHT22;4589;48.690;8.952;2023-12-29T05:18:43;7.10;99.90
9107;DHT22;4589;48.690;8.952;2023-12-29T05:21:16;7.20;99.90
9107;DHT22;4589;48.690;8.952;2023-12-29T05:23:43;7.20;99.90
9107;DHT22;4589;48.690;8.952;2023-12-29T05:26:09;7.20;99.90
9107;DHT22;4589;48.690;8.952;2023-12-29T05:28:34;7.20;99.90
9107;DHT22;4589;48.690;8.952;2023-12-29T05:33:32;7.20;99.90
9107;DHT22;4589;48.690;8.952;2023-12-29T05:35:58;7.20;99.90
9107;DHT22;4589;48.690;8.952;2023-12-29T05:38:24;7.20;99.90
9107;DHT22;4589;48.690;8.952;2023-12-29T05:40:50;7.20;99.90
9107;DHT22;4589;48.690;8.952;2023-12-29T05:43:16;7.20;99.90
9107;DHT22;4589;48.690;8.952;2023-12-29T05:45:42;7.20;99.90
9107;DHT22;4589;48.690;8.952;2023-12-29T05:48:08;7.20;99.90
9107;DHT22;4589;48.690;8.952;2023-12-29T05:50:33;7.30;99.90
9107;DHT22;4589;48.690;8.952;2023-12-29T05:55:25;7.30;99.90
9107;DHT22;4589;48.690;8.952;2023-12-29T05:57:50;7.40;99.90
9107;DHT22;4589;48.690;8.952;2023-12-29T06:00:16;7.30;99.90
9107;DHT22;4589;48.690;8.952;2023-12-29T06:02:42;7.40;99.90
9107;DHT22;4589;48.690;8.952;2023-12-29T06:05:10;7.30;99.90
9107;DHT22;4589;48.690;8.952;2023-12-29T06:07:36;7.40;99.90
9107;DHT22;4589;48.690;8.952;2023-12-29T06:10:02;7.30;99.90
9107;DHT22;4589;48.690;8.952;2023-12-29T06:12:27;7.40;99.90
9107;DHT22;4589;48.690;8.952;2023-12-29T06:14:53;7.40;99.90
9107;DHT22;4589;48.690;8.952;2023-12-29T06:17:19;7.40;99.90
9107;DHT22;4589;48.690;8.952;2023-12-29T06:19:44;7.40;99.90
9107;DHT22;4589;48.690;8.952;2023-12-29T06:22:10;7.50;99.90
9107;DHT22;4589;48.690;8.952;2023-12-29T06:24:40;7.40;99.90
9107;DHT22;4589;48.690;8.952;2023-12-29T06:27:08;7.40;99.90
9107;DHT22;4589;48.690;8.952;2023-12-29T06:29:34;7.40;99.90
9107;DHT22;4589;48.690;8.952;2023-12-29T06:32:00;7.40;99.90
9107;DHT22;4589;48.690;8.952;2023-12-29T06:34:25;7.40;99.90
9107;DHT22;4589;48.690;8.952;2023-12-29T06:36:51;7.40;99.90
9107;DHT22;4589;48.690;8.952;2023-12-29T06:41:42;7.40;99.90
9107;DHT22;4589;48.690;8.952;2023-12-29T06:44:08;7.40;99.90
9107;DHT22;4589;48.690;8.952;2023-12-29T06:46:34;7.50;99.90
9107;DHT22;4589;48.690;8.952;2023-12-29T06:48:59;7.40;99.90
9107;DHT22;4589;48.690;8.952;2023-12-29T06:51:25;7.40;99.90
9107;DHT22;4589;48.690;8.952;2023-12-29T06:53:50;7.40;99.90
9107;DHT22;4589;48.690;8.952;2023-12-29T06:56:16;7.40;99.90
9107;DHT22;4589;48.690;8.952;2023-12-29T06:58:43;7.40;99.90
9107;DHT22;4589;48.690;8.952;2023-12-29T07:01:09;7.40;99.90
9107;DHT22;4589;48.690;8.952;2023-12-29T07:06:01;7.40;99.90
9107;DHT22;4589;48.690;8.952;2023-12-29T07:08:27;7.50;99.90
9107;DHT22;4589;48.690;8.952;2023-12-29T07:10:53;7.50;99.90
9107;DHT22;4589;48.690;8.952;2023-12-29T07:13:19;7.50;99.90
9107;DHT22;4589;48.690;8.952;2023-12-29T07:15:48;7.50;99.90
9107;DHT22;4589;48.690;8.952;2023-12-29T07:18:14;7.50;99.90
9107;DHT22;4589;48.690;8.952;2023-12-29T07:20:40;7.50;99.90
9107;DHT22;4589;48.690;8.952;2023-12-29T07:23:05;7.40;99.90
9107;DHT22;4589;48.690;8.952;2023-12-29T07:25:31;7.50;99.90
9107;DHT22;4589;48.690;8.952;2023-12-29T07:27:57;7.40;99.90
9107;DHT22;4589;48.690;8.952;2023-12-29T07:30:22;7.50;99.90
9107;DHT22;4589;48.690;8.952;2023-12-29T07:32:48;7.50;99.90
9107;DHT22;4589;48.690;8.952;2023-12-29T07:35:14;7.50;99.90
9107;DHT22;4589;48.690;8.952;2023-12-29T07:37:43;7.50;99.90
9107;DHT22;4589;48.690;8.952;2023-12-29T07:40:13;7.50;99.90
9107;DHT22;4589;48.690;8.952;2023-12-29T07:42:42;7.50;99.90
9107;DHT22;4589;48.690;8.952;2023-12-29T07:45:10;7.50;99.90
9107;DHT22;4589;48.690;8.952;2023-12-29T07:47:35;7.50;99.90
9107;DHT22;4589;48.690;8.952;2023-12-29T07:50:01;7.50;99.90
9107;DHT22;4589;48.690;8.952;2023-12-29T07:52:27;7.50;99.90
9107;DHT22;4589;48.690;8.952;2023-12-29T07:54:54;7.50;99.90
9107;DHT22;4589;48.690;8.952;2023-12-29T07:57:19;7.50;99.90
9107;DHT22;4589;48.690;8.952;2023-12-29T07:59:45;7.50;99.90
9107;DHT22;4589;48.690;8.952;2023-12-29T08:02:10;7.60;99.90
9107;DHT22;4589;48.690;8.952;2023-12-29T08:04:36;7.50;99.90
9107;DHT22;4589;48.690;8.952;2023-12-29T08:07:02;7.60;99.90
9107;DHT22;4589;48.690;8.952;2023-12-29T08:09:28;7.60;99.90
9107;DHT22;4589;48.690;8.952;2023-12-29T08:11:53;7.60;99.90
9107;DHT22;4589;48.690;8.952;2023-12-29T08:14:19;7.60;99.90
9107;DHT22;4589;48.690;8.952;2023-12-29T08:16:44;7.60;99.90
9107;DHT22;4589;48.690;8.952;2023-12-29T08:19:10;7.60;99.90
9107;DHT22;4589;48.690;8.952;2023-12-29T08:21:36;7.60;99.90
9107;DHT22;4589;48.690;8.952;2023-12-29T08:24:02;7.70;99.90
9107;DHT22;4589;48.690;8.952;2023-12-29T08:26:28;7.70;99.90
9107;DHT22;4589;48.690;8.952;2023-12-29T08:28:54;7.70;99.90
9107;DHT22;4589;48.690;8.952;2023-12-29T08:31:19;7.70;99.90
9107;DHT22;4589;48.690;8.952;2023-12-29T08:33:45;7.60;99.90
9107;DHT22;4589;48.690;8.952;2023-12-29T08:36:12;7.70;99.90
9107;DHT22;4589;48.690;8.952;2023-12-29T08:38:38;7.80;99.90
9107;DHT22;4589;48.690;8.952;2023-12-29T08:41:04;7.70;99.90
9107;DHT22;4589;48.690;8.952;2023-12-29T08:43:30;7.80;99.90
9107;DHT22;4589;48.690;8.952;2023-12-29T08:45:56;7.80;99.90
9107;DHT22;4589;48.690;8.952;2023-12-29T08:48:22;7.80;99.90
9107;DHT22;4589;48.690;8.952;2023-12-29T08:50:48;7.80;99.90
9107;DHT22;4589;48.690;8.952;2023-12-29T08:53:14;7.80;99.90
9107;DHT22;4589;48.690;8.952;2023-12-29T08:55:41;7.90;99.90
9107;DHT22;4589;48.690;8.952;2023-12-29T08:58:06;7.80;99.90
9107;DHT22;4589;48.690;8.952;2023-12-29T09:00:32;7.80;99.90
9107;DHT22;4589;48.690;8.952;2023-12-29T09:02:57;7.80;99.90
9107;DHT22;4589;48.690;8.952;2023-12-29T09:05:23;7.90;99.90
9107;DHT22;4589;48.690;8.952;2023-12-29T09:10:14;7.90;99.90
9107;DHT22;4589;48.690;8.952;2023-12-29T09:12:41;7.90;99.90
9107;DHT22;4589;48.690;8.952;2023-12-29T09:15:07;8.00;99.90
9107;DHT22;4589;48.690;8.952;2023-12-29T09:17:33;8.00;99.90
9107;DHT22;4589;48.690;8.952;2023-12-29T09:19:58;8.00;99.90
9107;DHT22;4589;48.690;8.952;2023-12-29T09:22:24;8.10;99.90
9107;DHT22;4589;48.690;8.952;2023-12-29T09:24:50;8.20;99.90
9107;DHT22;4589;48.690;8.952;2023-12-29T09:27:15;8.20;99.90
9107;DHT22;4589;48.690;8.952;2023-12-29T09:29:41;8.20;99.90
9107;DHT22;4589;48.690;8.952;2023-12-29T09:34:33;8.40;99.90
9107;DHT22;4589;48.690;8.952;2023-12-29T09:36:58;8.40;99.90
9107;DHT22;4589;48.690;8.952;2023-12-29T09:39:24;8.50;99.90
9107;DHT22;4589;48.690;8.952;2023-12-29T09:41:52;8.60;99.90
9107;DHT22;4589;48.690;8.952;2023-12-29T09:44:20;8.60;99.90
9107;DHT22;4589;48.690;8.952;2023-12-29T09:46:50;8.50;99.90
9107;DHT22;4589;48.690;8.952;2023-12-29T09:49:19;8.50;99.90
9107;DHT22;4589;48.690;8.952;2023-12-29T09:51:45;8.50;99.90
9107;DHT22;4589;48.690;8.952;2023-12-29T09:54:11;8.60;99.90
9107;DHT22;4589;48.690;8.952;2023-12-29T09:56:37;8.60;99.90
9107;DHT22;4589;48.690;8.952;2023-12-29T09:59:03;8.70;99.90
9107;DHT22;4589;48.690;8.952;2023-12-29T10:01:30;8.70;99.90
9107;DHT22;4589;48.690;8.952;2023-12-29T10:03:57;8.70;99.90
9107;DHT22;4589;48.690;8.952;2023-12-29T10:06:24;8.80;99.90
9107;DHT22;4589;48.690;8.952;2023-12-29T10:08:50;8.80;99.90
9107;DHT22;4589;48.690;8.952;2023-12-29T10:11:22;8.80;99.90
9107;DHT22;4589;48.690;8.952;2023-12-29T10:13:50;8.80;99.90
9107;DHT22;4589;48.690;8.952;2023-12-29T10:16:35;8.90;99.90
9107;DHT22;4589;48.690;8.952;2023-12-29T10:19:30;9.00;99.90
9107;DHT22;4589;48.690;8.952;2023-12-29T10:22:06;9.20;99.90
9107;DHT22;4589;48.690;8.952;2023-12-29T10:24:34;9.40;99.90
9107;DHT22;4589;48.690;8.952;2023-12-29T10:27:01;9.80;99.90
9107;DHT22;4589;48.690;8.952;2023-12-29T10:29:27;10.10;99.90
9107;DHT22;4589;48.690;8.952;2023-12-29T10:31:53;10.40;99.90
9107;DHT22;4589;48.690;8.952;2023-12-29T10:34:23;11.00;99.90
9107;DHT22;4589;48.690;8.952;2023-12-29T10:36:56;11.70;99.90
9107;DHT22;4589;48.690;8.952;2023-12-29T10:39:22;12.10;99.90
9107;DHT22;4589;48.690;8.952;2023-12-29T10:41:47;12.50;99.90
9107;DHT22;4589;48.690;8.952;2023-12-29T10:44:13;13.00;99.90
9107;DHT22;4589;48.690;8.952;2023-12-29T10:46:39;14.10;99.90
9107;DHT22;4589;48.690;8.952;2023-12-29T10:49:08;13.30;99.90
9107;DHT22;4589;48.690;8.952;2023-12-29T10:51:34;12.60;99.90
9107;DHT22;4589;48.690;8.952;2023-12-29T10:54:00;12.20;99.90
9107;DHT22;4589;48.690;8.952;2023-12-29T10:56:26;12.90;99.90
9107;DHT22;4589;48.690;8.952;2023-12-29T10:59:03;13.50;99.90
9107;DHT22;4589;48.690;8.952;2023-12-29T11:01:34;13.50;99.90
9107;DHT22;4589;48.690;8.952;2023-12-29T11:04:05;14.00;99.90
9107;DHT22;4589;48.690;8.952;2023-12-29T11:06:40;14.00;99.90
9107;DHT22;4589;48.690;8.952;2023-12-29T11:09:06;14.60;99.90
9107;DHT22;4589;48.690;8.952;2023-12-29T11:11:32;14.00;99.90
9107;DHT22;4589;48.690;8.952;2023-12-29T11:13:59;14.40;99.90
9107;DHT22;4589;48.690;8.952;2023-12-29T11:16:26;14.50;99.90
9107;DHT22;4589;48.690;8.952;2023-12-29T11:18:53;16.20;99.90
9107;DHT22;4589;48.690;8.952;2023-12-29T11:21:22;17.50;99.90
9107;DHT22;4589;48.690;8.952;2023-12-29T11:23:48;15.40;99.90
9107;DHT22;4589;48.690;8.952;2023-12-29T11:26:14;15.80;99.90
9107;DHT22;4589;48.690;8.952;2023-12-29T11:28:40;15.80;99.90
9107;DHT22;4589;48.690;8.952;2023-12-29T11:31:06;15.20;99.90
9107;DHT22;4589;48.690;8.952;2023-12-29T11:33:39;15.20;99.90
9107;DHT22;4589;48.690;8.952;2023-12-29T11:36:13;14.90;99.90
9107;DHT22;4589;48.690;8.952;2023-12-29T11:38:59;14.80;99.90
9107;DHT22;4589;48.690;8.952;2023-12-29T11:44:25;14.80;99.90
9107;DHT22;4589;48.690;8.952;2023-12-29T11:46:52;14.60;99.90
9107;DHT22;4589;48.690;8.952;2023-12-29T11:49:18;14.90;99.90
9107;DHT22;4589;48.690;8.952;2023-12-29T11:51:45;15.10;99.90
9107;DHT22;4589;48.690;8.952;2023-12-29T11:54:22;15.50;99.90
9107;DHT22;4589;48.690;8.952;2023-12-29T11:56:49;15.70;99.90
9107;DHT22;4589;48.690;8.952;2023-12-29T11:59:25;14.90;99.90
9107;DHT22;4589;48.690;8.952;2023-12-29T12:01:54;14.60;99.90
9107;DHT22;4589;48.690;8.952;2023-12-29T12:04:39;14.50;99.90
9107;DHT22;4589;48.690;8.952;2023-12-29T12:07:16;14.10;99.90
9107;DHT22;4589;48.690;8.952;2023-12-29T12:09:42;14.00;99.90
9107;DHT22;4589;48.690;8.952;2023-12-29T12:12:10;14.30;99.90
9107;DHT22;4589;48.690;8.952;2023-12-29T12:14:54;14.90;99.90
9107;DHT22;4589;48.690;8.952;2023-12-29T12:17:33;15.60;99.90
9107;DHT22;4589;48.690;8.952;2023-12-29T12:20:01;15.60;99.90
9107;DHT22;4589;48.690;8.952;2023-12-29T12:22:30;16.50;99.90
9107;DHT22;4589;48.690;8.952;2023-12-29T12:24:59;16.40;99.90
9107;DHT22;4589;48.690;8.952;2023-12-29T12:27:26;16.00;99.90
9107;DHT22;4589;48.690;8.952;2023-12-29T12:29:56;16.40;99.90
9107;DHT22;4589;48.690;8.952;2023-12-29T12:32:24;16.00;99.90
9107;DHT22;4589;48.690;8.952;2023-12-29T12:34:50;16.10;99.90
9107;DHT22;4589;48.690;8.952;2023-12-29T12:37:24;15.40;99.90
9107;DHT22;4589;48.690;8.952;2023-12-29T12:39:50;15.90;99.90
9107;DHT22;4589;48.690;8.952;2023-12-29T12:42:16;15.70;99.90
9107;DHT22;4589;48.690;8.952;2023-12-29T12:45:03;16.10;99.90
9107;DHT22;4589;48.690;8.952;2023-12-29T12:47:42;16.30;99.90
9107;DHT22;4589;48.690;8.952;2023-12-29T12:50:13;15.70;99.90
9107;DHT22;4589;48.690;8.952;2023-12-29T12:52:39;14.80;99.90
9107;DHT22;4589;48.690;8.952;2023-12-29T12:55:06;13.80;99.90
9107;DHT22;4589;48.690;8.952;2023-12-29T12:57:33;13.60;99.90
9107;DHT22;4589;48.690;8.952;2023-12-29T13:00:00;14.30;99.90
9107;DHT22;4589;48.690;8.952;2023-12-29T13:02:27;14.40;99.90
9107;DHT22;4589;48.690;8.952;2023-12-29T13:04:54;13.80;99.90
9107;DHT22;4589;48.690;8.952;2023-12-29T13:07:20;14.10;99.90
9107;DHT22;4589;48.690;8.952;2023-12-29T13:09:46;14.00;99.90
9107;DHT22;4589;48.690;8.952;2023-12-29T13:12:13;13.60;99.90
9107;DHT22;4589;48.690;8.952;2023-12-29T13:14:42;13.40;99.90
9107;DHT22;4589;48.690;8.952;2023-12-29T13:17:12;13.00;99.90
9107;DHT22;4589;48.690;8.952;2023-12-29T13:19:38;12.30;99.90
9107;DHT22;4589;48.690;8.952;2023-12-29T13:22:09;12.10;99.90
9107;DHT22;4589;48.690;8.952;2023-12-29T13:24:35;11.90;99.90
9107;DHT22;4589;48.690;8.952;2023-12-29T13:27:05;11.80;99.90
9107;DHT22;4589;48.690;8.952;2023-12-29T13:29:32;11.70;99.90
9107;DHT22;4589;48.690;8.952;2023-12-29T13:37:37;11.40;99.90
9107;DHT22;4589;48.690;8.952;2023-12-29T13:42:37;11.30;99.90
9107;DHT22;4589;48.690;8.952;2023-12-29T13:45:04;11.50;99.90
9107;DHT22;4589;48.690;8.952;2023-12-29T13:47:31;11.50;99.90
9107;DHT22;4589;48.690;8.952;2023-12-29T13:52:24;11.30;99.90
9107;DHT22;4589;48.690;8.952;2023-12-29T13:54:49;11.20;99.90
9107;DHT22;4589;48.690;8.952;2023-12-29T13:57:15;11.10;99.90
9107;DHT22;4589;48.690;8.952;2023-12-29T13:59:41;11.20;99.90
9107;DHT22;4589;48.690;8.952;2023-12-29T14:05:20;11.10;99.90
9107;DHT22;4589;48.690;8.952;2023-12-29T14:08:00;11.10;99.90
9107;DHT22;4589;48.690;8.952;2023-12-29T14:10:29;11.00;99.90
9107;DHT22;4589;48.690;8.952;2023-12-29T14:13:04;11.10;99.90
9107;DHT22;4589;48.690;8.952;2023-12-29T14:15:36;10.90;99.90
9107;DHT22;4589;48.690;8.952;2023-12-29T14:20:39;10.80;99.90
9107;DHT22;4589;48.690;8.952;2023-12-29T14:23:05;10.80;99.90
9107;DHT22;4589;48.690;8.952;2023-12-29T14:25:34;10.80;99.90
9107;DHT22;4589;48.690;8.952;2023-12-29T14:28:01;10.70;99.90
9107;DHT22;4589;48.690;8.952;2023-12-29T14:30:27;10.70;99.90
9107;DHT22;4589;48.690;8.952;2023-12-29T14:32:59;10.60;99.90
9107;DHT22;4589;48.690;8.952;2023-12-29T14:35:25;10.60;99.90
9107;DHT22;4589;48.690;8.952;2023-12-29T14:37:50;10.50;99.90
9107;DHT22;4589;48.690;8.952;2023-12-29T14:40:16;10.40;99.90
9107;DHT22;4589;48.690;8.952;2023-12-29T14:45:08;10.40;99.90
9107;DHT22;4589;48.690;8.952;2023-12-29T14:47:35;10.30;99.90
9107;DHT22;4589;48.690;8.952;2023-12-29T14:50:01;10.20;99.90
9107;DHT22;4589;48.690;8.952;2023-12-29T14:54:53;10.10;99.90
9107;DHT22;4589;48.690;8.952;2023-12-29T14:59:44;10.00;99.90
9107;DHT22;4589;48.690;8.952;2023-12-29T15:02:10;10.00;99.90
9107;DHT22;4589;48.690;8.952;2023-12-29T15:04:36;10.00;99.90
9107;DHT22;4589;48.690;8.952;2023-12-29T15:07:02;10.00;99.90
9107;DHT22;4589;48.690;8.952;2023-12-29T15:09:28;9.90;99.90
9107;DHT22;4589;48.690;8.952;2023-12-29T15:11:53;9.80;99.90
9107;DHT22;4589;48.690;8.952;2023-12-29T15:14:19;9.80;99.90
9107;DHT22;4589;48.690;8.952;2023-12-29T15:16:45;12.70;99.90
9107;DHT22;4589;48.690;8.952;2023-12-29T15:21:38;9.40;99.90
9107;DHT22;4589;48.690;8.952;2023-12-29T15:24:07;9.40;99.90
9107;DHT22;4589;48.690;8.952;2023-12-29T15:26:33;9.40;99.90
9107;DHT22;4589;48.690;8.952;2023-12-29T15:28:58;9.20;99.90
9107;DHT22;4589;48.690;8.952;2023-12-29T15:31:24;9.00;99.90
9107;DHT22;4589;48.690;8.952;2023-12-29T15:33:50;8.90;99.90
9107;DHT22;4589;48.690;8.952;2023-12-29T15:36:16;8.80;99.90
9107;DHT22;4589;48.690;8.952;2023-12-29T15:38:49;8.80;99.90
9107;DHT22;4589;48.690;8.952;2023-12-29T15:43:41;8.60;99.90
9107;DHT22;4589;48.690;8.952;2023-12-29T15:46:14;8.60;99.90
9107;DHT22;4589;48.690;8.952;2023-12-29T15:51:09;8.40;99.90
9107;DHT22;4589;48.690;8.952;2023-12-29T15:53:35;8.30;99.90
9107;DHT22;4589;48.690;8.952;2023-12-29T15:56:01;8.30;99.90
9107;DHT22;4589;48.690;8.952;2023-12-29T15:58:30;8.20;99.90
9107;DHT22;4589;48.690;8.952;2023-12-29T16:00:56;8.10;99.90
9107;DHT22;4589;48.690;8.952;2023-12-29T16:03:22;8.20;99.90
9107;DHT22;4589;48.690;8.952;2023-12-29T16:05:47;8.10;99.90
9107;DHT22;4589;48.690;8.952;2023-12-29T16:10:40;7.90;99.90
9107;DHT22;4589;48.690;8.952;2023-12-29T16:13:05;7.80;99.90
9107;DHT22;4589;48.690;8.952;2023-12-29T16:15:31;7.70;99.90
9107;DHT22;4589;48.690;8.952;2023-12-29T16:17:57;7.60;99.90
9107;DHT22;4589;48.690;8.952;2023-12-29T16:20:22;7.60;99.90
9107;DHT22;4589;48.690;8.952;2023-12-29T16:22:48;7.60;99.90
9107;DHT22;4589;48.690;8.952;2023-12-29T16:25:13;7.50;99.90
9107;DHT22;4589;48.690;8.952;2023-12-29T16:27:42;7.40;99.90
9107;DHT22;4589;48.690;8.952;2023-12-29T16:30:09;7.40;99.90
9107;DHT22;4589;48.690;8.952;2023-12-29T16:32:34;7.30;99.90
9107;DHT22;4589;48.690;8.952;2023-12-29T16:35:00;7.40;99.90
9107;DHT22;4589;48.690;8.952;2023-12-29T16:39:53;7.20;99.90
9107;DHT22;4589;48.690;8.952;2023-12-29T16:42:22;7.20;99.90
9107;DHT22;4589;48.690;8.952;2023-12-29T16:44:47;7.20;99.90
9107;DHT22;4589;48.690;8.952;2023-12-29T16:47:13;7.10;99.90
9107;DHT22;4589;48.690;8.952;2023-12-29T16:49:39;7.20;99.90
9107;DHT22;4589;48.690;8.952;2023-12-29T16:52:06;7.10;99.90
9107;DHT22;4589;48.690;8.952;2023-12-29T16:54:31;7.10;99.90
9107;DHT22;4589;48.690;8.952;2023-12-29T16:57:03;7.00;99.90
9107;DHT22;4589;48.690;8.952;2023-12-29T16:59:29;6.90;99.90
9107;DHT22;4589;48.690;8.952;2023-12-29T17:01:56;6.90;99.90
9107;DHT22;4589;48.690;8.952;2023-12-29T17:04:25;6.80;99.90
9107;DHT22;4589;48.690;8.952;2023-12-29T17:09:17;6.70;99.90
9107;DHT22;4589;48.690;8.952;2023-12-29T17:11:43;6.60;99.90
9107;DHT22;4589;48.690;8.952;2023-12-29T17:14:09;6.60;99.90
9107;DHT22;4589;48.690;8.952;2023-12-29T17:21:27;6.40;99.90
9107;DHT22;4589;48.690;8.952;2023-12-29T17:23:52;6.40;99.90
9107;DHT22;4589;48.690;8.952;2023-12-29T17:28:46;6.20;99.90
9107;DHT22;4589;48.690;8.952;2023-12-29T17:33:37;6.10;99.90
9107;DHT22;4589;48.690;8.952;2023-12-29T17:36:06;6.00;99.90
9107;DHT22;4589;48.690;8.952;2023-12-29T17:41:02;5.90;99.90
9107;DHT22;4589;48.690;8.952;2023-12-29T17:50:46;5.70;99.90
9107;DHT22;4589;48.690;8.952;2023-12-29T17:53:11;5.70;99.90
9107;DHT22;4589;48.690;8.952;2023-12-29T17:55:37;5.60;99.90
9107;DHT22;4589;48.690;8.952;2023-12-29T17:58:03;5.70;99.90
9107;DHT22;4589;48.690;8.952;2023-12-29T18:00:29;5.60;99.90
9107;DHT22;4589;48.690;8.952;2023-12-29T18:02:55;5.60;99.90
9107;DHT22;4589;48.690;8.952;2023-12-29T18:05:21;5.50;99.90
9107;DHT22;4589;48.690;8.952;2023-12-29T18:07:46;5.40;99.90
9107;DHT22;4589;48.690;8.952;2023-12-29T18:10:12;5.30;99.90
9107;DHT22;4589;48.690;8.952;2023-12-29T18:12:38;5.10;99.90
9107;DHT22;4589;48.690;8.952;2023-12-29T18:15:03;5.10;99.90
9107;DHT22;4589;48.690;8.952;2023-12-29T18:19:58;5.00;99.90
9107;DHT22;4589;48.690;8.952;2023-12-29T18:22:24;5.00;99.90
9107;DHT22;4589;48.690;8.952;2023-12-29T18:29:41;5.00;99.90
9107;DHT22;4589;48.690;8.952;2023-12-29T18:32:07;5.00;99.90
9107;DHT22;4589;48.690;8.952;2023-12-29T18:34:32;5.00;99.90
9107;DHT22;4589;48.690;8.952;2023-12-29T18:36:58;5.20;99.90